createdAt,value
2019-02-27T00:01:19.296Z,75.40
2019-02-27T00:03:47.429Z,75.80
2019-02-27T00:06:16.053Z,76.00
2019-02-27T00:08:44.120Z,76.30
2019-02-27T00:11:12.372Z,76.00
2019-02-27T00:13:41.116Z,76.40
2019-02-27T00:16:11.178Z,77.50
2019-02-27T00:18:38.775Z,76.50
2019-02-27T00:21:10.028Z,77.50
2019-02-27T00:23:36.554Z,76.90
2019-02-27T00:26:08.840Z,75.40
2019-02-27T00:28:34.131Z,75.00
2019-02-27T00:31:02.710Z,74.70
2019-02-27T00:33:31.184Z,74.40
2019-02-27T00:35:59.146Z,74.40
2019-02-27T00:38:27.240Z,74.30
2019-02-27T00:40:55.397Z,74.20
2019-02-27T00:43:23.391Z,74.40
2019-02-27T00:45:51.435Z,74.50
2019-02-27T00:48:21.171Z,74.40
2019-02-27T00:50:49.117Z,74.20
2019-02-27T00:53:17.078Z,74.20
2019-02-27T00:55:44.981Z,74.10
2019-02-27T00:58:12.931Z,74.30
2019-02-27T01:00:40.826Z,74.40
2019-02-27T01:03:08.730Z,74.50
2019-02-27T01:05:40.793Z,75.30
2019-02-27T01:08:06.644Z,74.50
2019-02-27T01:10:35.001Z,74.60
2019-02-27T01:13:03.449Z,74.60
2019-02-27T01:15:34.544Z,75.00
2019-02-27T01:18:02.537Z,75.30
2019-02-27T01:20:30.708Z,76.00
2019-02-27T01:22:58.865Z,75.90
2019-02-27T01:25:27.154Z,75.90
2019-02-27T01:27:55.226Z,76.20
2019-02-27T01:30:24.463Z,76.80
2019-02-27T01:32:53.218Z,77.20
2019-02-27T01:35:21.187Z,77.30
2019-02-27T01:37:49.151Z,77.50
2019-02-27T01:40:17.930Z,77.30
2019-02-27T01:42:46.630Z,77.70
2019-02-27T01:45:14.804Z,78.00
2019-02-27T01:47:42.769Z,78.30
2019-02-27T01:50:10.721Z,78.70
2019-02-27T01:52:38.808Z,78.50
2019-02-27T01:55:06.887Z,78.80
2019-02-27T01:57:36.796Z,79.10
2019-02-27T02:00:06.292Z,79.10
2019-02-27T02:02:34.887Z,79.20
2019-02-27T02:05:04.394Z,79.50
2019-02-27T02:07:32.471Z,79.50
2019-02-27T02:10:00.537Z,80.00
2019-02-27T02:12:28.584Z,79.40
2019-02-27T02:14:56.680Z,80.00
2019-02-27T02:17:24.751Z,80.20
2019-02-27T02:19:54.166Z,79.70
2019-02-27T02:22:22.636Z,80.60
2019-02-27T02:24:51.904Z,79.60
2019-02-27T02:27:20.399Z,79.70
2019-02-27T02:29:52.926Z,79.30
2019-02-27T02:32:18.269Z,79.60
2019-02-27T02:34:48.053Z,79.80
2019-02-27T02:37:16.189Z,79.50
2019-02-27T02:39:44.156Z,79.20
2019-02-27T02:42:30.865Z,78.90
2019-02-27T02:44:58.800Z,79.00
2019-02-27T02:47:26.682Z,79.50
2019-02-27T02:49:54.763Z,80.00
2019-02-27T02:52:22.674Z,80.50
2019-02-27T02:54:50.797Z,80.60
2019-02-27T02:57:18.703Z,80.80
2019-02-27T02:59:46.626Z,81.70
2019-02-27T03:02:14.523Z,81.80
2019-02-27T03:04:47.918Z,82.00
2019-02-27T03:07:12.078Z,82.20
2019-02-27T03:09:39.979Z,82.30
2019-02-27T03:12:08.963Z,81.70
2019-02-27T03:14:36.855Z,81.50
2019-02-27T03:17:04.779Z,81.20
2019-02-27T03:19:32.672Z,80.80
2019-02-27T03:22:03.599Z,79.90
2019-02-27T03:24:30.143Z,79.00
2019-02-27T03:26:58.028Z,78.60
2019-02-27T03:29:25.930Z,78.00
2019-02-27T03:32:00.195Z,77.20
2019-02-27T03:34:23.440Z,77.40
2019-02-27T03:36:51.311Z,77.20
2019-02-27T03:39:19.208Z,76.90
2019-02-27T03:41:47.470Z,75.10
2019-02-27T03:44:20.236Z,75.10
2019-02-27T03:46:46.381Z,74.70
2019-02-27T03:49:14.323Z,75.30
2019-02-27T03:51:42.259Z,74.90
2019-02-27T03:54:10.173Z,75.30
2019-02-27T03:56:43.431Z,75.20
2019-02-27T03:59:08.092Z,75.10
2019-02-27T04:01:36.065Z,75.70
2019-02-27T04:04:03.998Z,75.70
2019-02-27T04:06:31.884Z,75.80
2019-02-27T04:08:59.998Z,76.80
2019-02-27T04:11:27.918Z,77.10
2019-02-27T04:14:02.940Z,77.10
2019-02-27T04:19:03.139Z,77.20
2019-02-27T04:21:30.628Z,77.60
2019-02-27T04:23:58.587Z,77.70
2019-02-27T04:26:26.763Z,78.20
2019-02-27T04:28:54.927Z,78.40
2019-02-27T04:31:23.123Z,78.90
2019-02-27T04:33:51.399Z,79.10
2019-02-27T04:36:19.450Z,79.20
2019-02-27T04:38:48.062Z,79.10
2019-02-27T04:41:18.174Z,79.60
2019-02-27T04:43:45.711Z,79.70
2019-02-27T04:46:13.908Z,79.60
2019-02-27T04:48:42.089Z,79.70
2019-02-27T04:51:10.059Z,80.30
2019-02-27T04:53:38.123Z,81.00
2019-02-27T04:56:06.485Z,81.20
2019-02-27T04:58:34.446Z,82.50
2019-02-27T05:01:02.541Z,82.20
2019-02-27T05:03:30.718Z,82.20
2019-02-27T05:05:58.893Z,82.40
2019-02-27T05:08:27.732Z,82.30
2019-02-27T05:10:55.855Z,82.80
2019-02-27T05:13:24.022Z,83.20
2019-02-27T05:15:52.205Z,83.70
2019-02-27T05:18:20.173Z,84.10
2019-02-27T05:20:48.348Z,84.60
2019-02-27T05:23:16.400Z,85.10
2019-02-27T05:25:44.702Z,85.70
2019-02-27T05:28:13.168Z,86.00
2019-02-27T05:30:44.870Z,86.60
2019-02-27T05:33:10.966Z,86.80
2019-02-27T05:35:39.031Z,87.10
2019-02-27T05:38:07.308Z,87.50
2019-02-27T05:40:35.381Z,86.60
2019-02-27T05:43:03.447Z,86.30
2019-02-27T05:45:31.526Z,86.00
2019-02-27T05:47:59.493Z,85.80
2019-02-27T05:50:27.439Z,85.70
2019-02-27T05:52:55.533Z,86.00
2019-02-27T05:55:23.793Z,86.30
2019-02-27T05:57:52.100Z,86.60
2019-02-27T06:00:21.660Z,87.20
2019-02-27T06:02:49.766Z,87.80
2019-02-27T06:05:17.942Z,88.80
2019-02-27T06:07:46.011Z,88.50
2019-02-27T06:10:14.217Z,88.70
2019-02-27T06:12:42.342Z,88.70
2019-02-27T06:15:12.509Z,89.50
2019-02-27T06:17:43.363Z,90.00
2019-02-27T06:20:10.351Z,90.40
2019-02-27T06:22:40.250Z,90.80
2019-02-27T06:25:09.991Z,91.00
2019-02-27T06:27:39.426Z,91.20
2019-02-27T06:30:07.778Z,91.60
2019-02-27T06:32:48.134Z,92.40
2019-02-27T06:35:16.042Z,92.30
2019-02-27T06:37:44.172Z,90.70
2019-02-27T06:40:12.324Z,86.10
2019-02-27T06:42:40.293Z,83.80
2019-02-27T06:45:27.306Z,83.10
2019-02-27T06:47:55.152Z,81.80
2019-02-27T06:50:25.197Z,79.70
2019-02-27T06:52:52.644Z,78.20
2019-02-27T06:55:20.580Z,78.20
2019-02-27T06:57:48.429Z,76.80
2019-02-27T07:00:16.888Z,76.40
2019-02-27T07:02:44.770Z,76.90
2019-02-27T07:05:13.557Z,77.80
2019-02-27T07:07:42.167Z,79.50
2019-02-27T07:10:10.044Z,80.20
2019-02-27T07:12:37.946Z,81.10
2019-02-27T07:15:06.211Z,82.60
2019-02-27T07:17:34.231Z,82.40
2019-02-27T07:20:02.127Z,83.90
2019-02-27T07:22:30.178Z,85.60
2019-02-27T07:24:58.070Z,85.20
2019-02-27T07:27:28.313Z,85.90
2019-02-27T07:29:55.766Z,86.20
2019-02-27T07:32:23.639Z,86.70
2019-02-27T07:34:51.526Z,86.60
2019-02-27T07:37:19.375Z,86.40
2019-02-27T07:39:47.222Z,85.90
2019-02-27T07:42:15.138Z,85.30
2019-02-27T07:44:43.047Z,84.40
2019-02-27T07:47:10.926Z,83.90
2019-02-27T07:49:38.818Z,82.30
2019-02-27T07:52:06.676Z,80.50
2019-02-27T07:54:35.076Z,79.90
2019-02-27T07:57:03.040Z,77.80
2019-02-27T07:59:31.078Z,77.80
2019-02-27T08:02:02.343Z,76.50
2019-02-27T08:04:28.508Z,75.50
2019-02-27T08:06:56.466Z,73.80
2019-02-27T08:09:24.483Z,73.50
2019-02-27T08:11:53.530Z,72.20
2019-02-27T08:14:21.487Z,72.20
2019-02-27T08:16:49.385Z,71.40
2019-02-27T08:19:17.289Z,69.20
2019-02-27T08:21:45.190Z,66.50
2019-02-27T08:24:14.346Z,65.90
2019-02-27T08:26:42.590Z,63.60
2019-02-27T08:29:10.634Z,62.00
2019-02-27T08:31:38.656Z,60.00
2019-02-27T08:34:09.521Z,57.60
2019-02-27T08:36:37.432Z,57.20
2019-02-27T08:39:05.372Z,57.30
2019-02-27T08:41:33.324Z,57.50
2019-02-27T08:44:01.167Z,58.10
2019-02-27T08:46:29.003Z,57.20
2019-02-27T08:48:56.902Z,56.40
2019-02-27T08:51:24.758Z,55.80
2019-02-27T08:53:53.017Z,54.90
2019-02-27T08:56:21.950Z,53.70
2019-02-27T08:58:49.815Z,52.80
2019-02-27T09:01:19.080Z,51.30
2019-02-27T09:03:48.198Z,50.80
2019-02-27T09:06:18.538Z,50.30
2019-02-27T09:08:45.619Z,49.30
2019-02-27T09:11:14.724Z,49.70
2019-02-27T09:13:42.782Z,50.10
2019-02-27T09:16:10.618Z,50.20
2019-02-27T09:18:38.530Z,50.40
2019-02-27T09:21:06.394Z,50.50
2019-02-27T09:23:34.249Z,49.50
2019-02-27T09:26:02.807Z,49.10
2019-02-27T09:28:31.367Z,47.40
2019-02-27T09:31:03.348Z,47.90
2019-02-27T09:33:38.729Z,46.60
2019-02-27T09:36:07.948Z,46.90
2019-02-27T09:38:36.753Z,46.60
2019-02-27T09:41:04.664Z,46.70
2019-02-27T09:43:32.557Z,45.70
2019-02-27T09:46:00.458Z,45.40
2019-02-27T09:48:28.372Z,44.20
2019-02-27T09:50:57.010Z,44.20
2019-02-27T09:53:24.988Z,43.40
2019-02-27T09:55:54.404Z,43.10
2019-02-27T09:58:22.893Z,42.50
2019-02-27T10:00:50.760Z,42.40
2019-02-27T10:03:21.256Z,42.90
2019-02-27T10:05:48.121Z,43.20
2019-02-27T10:08:16.605Z,44.20
2019-02-27T10:10:45.785Z,45.10
2019-02-27T10:13:14.013Z,46.30
2019-02-27T10:15:41.919Z,48.90
2019-02-27T10:18:09.768Z,49.50
2019-02-27T10:20:38.040Z,51.30
2019-02-27T10:23:05.958Z,51.40
2019-02-27T10:25:34.427Z,53.00
2019-02-27T10:28:04.469Z,52.80
2019-02-27T10:30:31.834Z,54.00
2019-02-27T10:32:59.672Z,56.50
2019-02-27T10:35:29.539Z,57.90
2019-02-27T10:37:57.103Z,60.40
2019-02-27T10:40:25.429Z,62.70
2019-02-27T10:42:53.264Z,66.30
2019-02-27T10:45:21.354Z,67.40
2019-02-27T10:47:49.204Z,68.80
2019-02-27T10:50:20.603Z,68.20
2019-02-27T10:52:56.479Z,68.70
2019-02-27T10:55:24.424Z,71.50
2019-02-27T10:57:52.722Z,71.80
2019-02-27T11:00:24.884Z,73.30
2019-02-27T11:02:52.459Z,75.30
2019-02-27T11:05:19.823Z,76.20
2019-02-27T11:07:50.153Z,77.90
2019-02-27T11:10:17.200Z,78.50
2019-02-27T11:12:45.053Z,78.90
2019-02-27T11:15:12.995Z,78.60
2019-02-27T11:17:40.916Z,79.90
2019-02-27T11:20:08.967Z,79.30
2019-02-27T11:22:36.955Z,79.80
2019-02-27T11:25:04.780Z,80.40
2019-02-27T11:27:32.638Z,80.80
2019-02-27T11:30:03.008Z,80.80
2019-02-27T11:32:30.345Z,81.90
2019-02-27T11:35:04.187Z,82.40
2019-02-27T11:37:32.611Z,82.40
2019-02-27T11:40:00.986Z,83.20
2019-02-27T11:42:29.052Z,84.00
2019-02-27T11:44:58.395Z,84.60
2019-02-27T11:47:27.382Z,84.60
2019-02-27T11:49:56.381Z,85.10
2019-02-27T11:52:27.802Z,84.80
2019-02-27T11:54:54.254Z,85.60
2019-02-27T11:57:22.497Z,85.40
2019-02-27T11:59:50.643Z,86.30
2019-02-27T12:02:18.675Z,86.50
2019-02-27T12:04:46.551Z,86.80
2019-02-27T12:07:17.233Z,87.30
2019-02-27T12:09:44.262Z,87.00
2019-02-27T12:12:12.225Z,88.00
2019-02-27T12:14:40.651Z,87.80
2019-02-27T12:17:08.517Z,88.20
2019-02-27T12:19:36.386Z,86.50
2019-02-27T12:22:04.302Z,86.50
2019-02-27T12:24:32.196Z,87.20
2019-02-27T12:27:00.220Z,86.70
2019-02-27T12:29:28.123Z,85.90
2019-02-27T12:31:55.966Z,85.80
2019-02-27T12:34:25.169Z,85.00
2019-02-27T12:36:53.271Z,84.90
2019-02-27T12:39:21.121Z,85.90
2019-02-27T12:41:49.011Z,85.80
2019-02-27T12:44:16.890Z,85.40
2019-02-27T12:46:44.806Z,83.40
2019-02-27T12:49:14.159Z,83.20
2019-02-27T12:51:42.083Z,84.00
2019-02-27T12:54:10.460Z,83.70
2019-02-27T12:56:41.595Z,83.50
2019-02-27T12:59:08.683Z,83.70
2019-02-27T13:01:36.737Z,83.00
2019-02-27T13:04:04.575Z,81.80
2019-02-27T13:06:36.617Z,81.70
2019-02-27T13:09:02.198Z,82.50
2019-02-27T13:11:30.057Z,82.40
2019-02-27T13:13:59.684Z,84.30
2019-02-27T13:16:27.745Z,82.80
2019-02-27T13:18:55.909Z,84.00
2019-02-27T13:21:23.800Z,83.10
2019-02-27T13:23:51.883Z,83.00
2019-02-27T13:26:19.881Z,81.50
2019-02-27T13:28:48.785Z,77.70
2019-02-27T13:31:17.444Z,78.10
2019-02-27T13:33:45.373Z,78.20
2019-02-27T13:36:13.286Z,75.00
2019-02-27T13:38:41.148Z,73.10
2019-02-27T13:41:10.559Z,72.70
2019-02-27T13:43:38.500Z,71.30
2019-02-27T13:46:06.371Z,69.40
2019-02-27T13:48:34.501Z,68.90
2019-02-27T13:51:02.665Z,69.00
2019-02-27T13:53:30.723Z,68.80
2019-02-27T13:55:58.646Z,66.80
2019-02-27T13:58:26.514Z,64.30
2019-02-27T14:00:54.576Z,61.10
2019-02-27T14:03:22.703Z,61.50
2019-02-27T14:05:50.662Z,63.00
2019-02-27T14:08:18.678Z,63.00
2019-02-27T14:10:46.737Z,61.50
2019-02-27T14:13:14.728Z,61.30
2019-02-27T14:15:43.590Z,61.00
2019-02-27T14:18:13.367Z,64.40
2019-02-27T14:20:42.007Z,64.20
2019-02-27T14:23:11.925Z,64.50
2019-02-27T14:25:39.309Z,67.30
2019-02-27T14:28:07.233Z,66.80
2019-02-27T14:30:36.453Z,66.40
2019-02-27T14:33:04.580Z,65.80
2019-02-27T14:35:36.155Z,65.10
2019-02-27T14:38:02.340Z,63.10
2019-02-27T14:40:30.192Z,61.60
2019-02-27T14:42:58.051Z,60.00
2019-02-27T14:45:25.924Z,59.30
2019-02-27T14:47:53.769Z,58.40
2019-02-27T14:50:21.644Z,57.90
2019-02-27T14:52:50.066Z,57.10
2019-02-27T14:55:18.291Z,54.00
2019-02-27T14:57:50.086Z,52.60
2019-02-27T15:00:16.595Z,51.50
2019-02-27T15:02:44.475Z,50.70
2019-02-27T15:05:12.702Z,50.10
2019-02-27T15:07:40.567Z,48.90
2019-02-27T15:10:08.434Z,48.80
2019-02-27T15:12:36.348Z,49.90
2019-02-27T15:15:06.839Z,52.00
2019-02-27T15:17:33.739Z,53.40
2019-02-27T15:20:04.747Z,53.30
2019-02-27T15:22:31.126Z,54.10
2019-02-27T15:24:58.988Z,55.60
2019-02-27T15:27:26.873Z,57.50
2019-02-27T15:29:54.768Z,58.10
2019-02-27T15:32:22.652Z,58.30
2019-02-27T15:34:50.505Z,57.70
2019-02-27T15:37:18.372Z,57.50
2019-02-27T15:39:46.264Z,56.60
2019-02-27T15:42:16.138Z,56.90
2019-02-27T15:44:44.064Z,57.10
2019-02-27T15:47:11.928Z,56.80
2019-02-27T15:49:39.992Z,55.60
2019-02-27T15:52:07.867Z,55.60
2019-02-27T15:54:35.780Z,54.30
2019-02-27T15:57:03.607Z,53.80
2019-02-27T15:59:31.468Z,52.70
2019-02-27T16:02:03.551Z,53.60
2019-02-27T16:04:29.874Z,55.10
2019-02-27T16:06:57.727Z,57.70
2019-02-27T16:09:25.809Z,59.70
2019-02-27T16:11:53.658Z,63.60
2019-02-27T16:14:21.519Z,65.80
2019-02-27T16:16:49.415Z,69.30
2019-02-27T16:19:17.304Z,72.60
2019-02-27T16:21:45.353Z,73.70
2019-02-27T16:24:13.244Z,76.30
2019-02-27T16:26:41.101Z,77.60
2019-02-27T16:29:09.898Z,78.80
2019-02-27T16:31:40.065Z,80.80
2019-02-27T16:34:07.691Z,81.80
2019-02-27T16:36:36.401Z,83.10
2019-02-27T16:39:07.407Z,83.10
2019-02-27T16:41:34.509Z,84.30
2019-02-27T16:44:02.397Z,86.40
2019-02-27T16:46:30.277Z,87.60
2019-02-27T16:48:58.636Z,88.60
2019-02-27T16:51:27.003Z,89.40
2019-02-27T16:53:54.948Z,90.00
2019-02-27T16:56:23.112Z,90.40
2019-02-27T16:58:51.091Z,90.80
2019-02-27T17:01:21.801Z,90.60
2019-02-27T17:03:59.385Z,90.30
2019-02-27T17:06:19.290Z,90.50
2019-02-27T17:08:47.210Z,90.70
2019-02-27T17:11:15.078Z,91.10
2019-02-27T17:13:42.948Z,91.00
2019-02-27T17:16:11.534Z,91.20
2019-02-27T17:18:39.530Z,91.50
2019-02-27T17:21:07.423Z,91.60
2019-02-27T17:23:35.447Z,91.30
2019-02-27T17:26:04.335Z,91.20
2019-02-27T17:28:32.532Z,90.60
2019-02-27T17:31:01.896Z,90.00
2019-02-27T17:33:31.540Z,89.90
2019-02-27T17:36:00.124Z,88.50
2019-02-27T17:38:27.984Z,87.10
2019-02-27T17:40:55.871Z,86.60
2019-02-27T17:43:28.524Z,86.90
2019-02-27T17:45:54.480Z,89.10
2019-02-27T17:48:22.659Z,90.10
2019-02-27T17:50:50.552Z,90.30
2019-02-27T17:53:20.380Z,90.70
2019-02-27T17:55:48.040Z,91.60
2019-02-27T17:58:15.922Z,91.60
2019-02-27T18:00:44.247Z,91.70
2019-02-27T18:03:12.292Z,91.80
2019-02-27T18:05:41.177Z,91.90
2019-02-27T18:08:09.035Z,92.00
2019-02-27T18:10:37.636Z,92.00
2019-02-27T18:13:06.409Z,92.30
2019-02-27T18:15:34.270Z,92.60
2019-02-27T18:18:02.174Z,92.60
2019-02-27T18:20:31.930Z,92.70
2019-02-27T18:22:59.560Z,92.80
2019-02-27T18:25:27.791Z,92.90
2019-02-27T18:27:58.713Z,93.30
2019-02-27T18:30:25.575Z,93.40
2019-02-27T18:32:53.794Z,92.80
2019-02-27T18:35:21.660Z,92.30
2019-02-27T18:37:53.285Z,91.30
2019-02-27T18:40:19.091Z,91.00
2019-02-27T18:42:46.933Z,88.20
2019-02-27T18:45:16.084Z,87.00
2019-02-27T18:47:44.285Z,86.70
2019-02-27T18:50:12.142Z,87.20
2019-02-27T18:52:44.458Z,88.40
2019-02-27T18:55:12.497Z,89.30
2019-02-27T18:57:43.257Z,90.30
2019-02-27T19:00:09.855Z,90.30
2019-02-27T19:02:37.922Z,90.90
2019-02-27T19:05:06.736Z,90.60
2019-02-27T19:07:35.379Z,90.40
2019-02-27T19:10:03.874Z,90.40
2019-02-27T19:12:32.795Z,90.40
2019-02-27T19:15:01.079Z,90.30
2019-02-27T19:17:32.138Z,90.20
2019-02-27T19:19:59.414Z,89.90
2019-02-27T19:22:27.830Z,89.70
2019-02-27T19:24:57.484Z,89.40
2019-02-27T19:27:25.756Z,89.70
2019-02-27T19:29:53.848Z,90.00
2019-02-27T19:32:23.207Z,90.00
2019-02-27T19:34:51.609Z,89.70
2019-02-27T19:37:19.475Z,90.00
2019-02-27T19:39:47.341Z,90.20
2019-02-27T19:42:16.269Z,90.20
2019-02-27T19:44:44.158Z,90.40
2019-02-27T19:47:12.575Z,90.50
2019-02-27T19:49:40.575Z,90.50
2019-02-27T19:52:08.483Z,90.60
2019-02-27T19:54:36.864Z,90.60
2019-02-27T19:57:07.920Z,90.40
2019-02-27T19:59:34.202Z,90.50
2019-02-27T20:02:02.074Z,90.40
2019-02-27T20:04:30.052Z,90.40
2019-02-27T20:06:58.347Z,90.20
2019-02-27T20:09:27.520Z,90.10
2019-02-27T20:11:55.576Z,90.20
2019-02-27T20:14:23.696Z,90.10
2019-02-27T20:16:55.311Z,90.30
2019-02-27T20:19:28.366Z,90.40
2019-02-27T20:21:53.796Z,90.00
2019-02-27T20:24:21.662Z,89.70
2019-02-27T20:26:51.403Z,89.80
2019-02-27T20:29:19.149Z,89.60
2019-02-27T20:31:47.072Z,89.80
2019-02-27T20:34:15.086Z,90.20
2019-02-27T20:36:42.931Z,90.30
2019-02-27T20:39:10.924Z,90.40
2019-02-27T20:41:40.977Z,90.40
2019-02-27T20:44:08.499Z,90.50
2019-02-27T20:46:36.347Z,90.50
2019-02-27T20:49:04.215Z,90.60
2019-02-27T20:51:32.131Z,90.60
2019-02-27T20:54:00.164Z,90.60
2019-02-27T20:56:27.989Z,90.70
2019-02-27T20:58:55.859Z,90.60
2019-02-27T21:01:23.785Z,90.50
2019-02-27T21:03:52.525Z,90.50
2019-02-27T21:06:20.435Z,90.30
2019-02-27T21:08:48.301Z,90.20
2019-02-27T21:11:16.151Z,90.10
2019-02-27T21:13:44.304Z,90.00
2019-02-27T21:16:12.172Z,90.20
2019-02-27T21:18:40.028Z,90.30
2019-02-27T21:21:08.427Z,90.20
2019-02-27T21:23:36.328Z,90.40
2019-02-27T21:26:04.422Z,90.60
2019-02-27T21:28:32.549Z,91.00
2019-02-27T21:31:01.322Z,91.00
2019-02-27T21:33:29.223Z,91.30
2019-02-27T21:35:57.163Z,91.50
2019-02-27T21:38:24.998Z,91.70
2019-02-27T21:40:53.010Z,91.80
2019-02-27T21:43:25.164Z,92.00
2019-02-27T21:45:51.467Z,91.70
2019-02-27T21:48:19.842Z,91.30
2019-02-27T21:50:47.826Z,91.30
2019-02-27T21:53:15.832Z,91.60
2019-02-27T21:55:44.694Z,91.60
2019-02-27T21:58:20.343Z,91.80
2019-02-27T22:00:44.910Z,92.00
2019-02-27T22:03:12.650Z,92.00
2019-02-27T22:05:42.970Z,92.00
2019-02-27T22:08:10.970Z,91.80
2019-02-27T22:10:38.845Z,91.80
2019-02-27T22:13:10.473Z,91.80
2019-02-27T22:15:36.253Z,91.80
2019-02-27T22:18:04.130Z,91.50
2019-02-27T22:20:32.069Z,91.70
2019-02-27T22:23:00.135Z,91.80
2019-02-27T22:25:31.073Z,91.80
2019-02-27T22:27:58.535Z,91.90
2019-02-27T22:30:26.518Z,91.70
2019-02-27T22:32:54.434Z,91.70
2019-02-27T22:35:22.614Z,91.30
2019-02-27T22:37:52.500Z,91.20
2019-02-27T22:40:20.117Z,91.20
2019-02-27T22:42:48.631Z,91.20
2019-02-27T22:45:17.201Z,91.00
2019-02-27T22:47:45.087Z,91.10
2019-02-27T22:50:12.996Z,91.00
2019-02-27T22:52:40.872Z,91.20
2019-02-27T22:55:10.715Z,91.30
2019-02-27T22:57:38.877Z,91.30
2019-02-27T23:00:08.162Z,91.20
2019-02-27T23:02:36.577Z,91.50
2019-02-27T23:05:05.075Z,92.00
2019-02-27T23:07:33.072Z,92.10
2019-02-27T23:10:00.961Z,92.20
2019-02-27T23:12:28.878Z,92.00
2019-02-27T23:14:56.769Z,91.70
2019-02-27T23:17:24.677Z,91.90
2019-02-27T23:19:52.572Z,91.80
2019-02-27T23:22:20.730Z,91.80
2019-02-27T23:24:48.653Z,91.90
2019-02-27T23:27:16.511Z,91.80
2019-02-27T23:29:44.514Z,91.30
2019-02-27T23:32:12.398Z,91.20
2019-02-27T23:34:41.653Z,91.30
2019-02-27T23:37:09.875Z,91.10
2019-02-27T23:39:39.663Z,91.20
2019-02-27T23:42:07.426Z,91.20
2019-02-27T23:44:38.457Z,91.10
2019-02-27T23:47:05.162Z,91.10
2019-02-27T23:49:33.072Z,91.10
2019-02-27T23:52:00.972Z,91.20
2019-02-27T23:54:32.389Z,91.40
2019-02-27T23:56:59.004Z,91.60
2019-02-27T23:59:26.857Z,91.80
